createdAt,value
2022-08-09T00:01:01.124Z,21.47
2022-08-09T00:04:10.593Z,21.45
2022-08-09T00:06:23.219Z,21.41
2022-08-09T00:08:57.008Z,21.39
2022-08-09T00:11:58.527Z,21.36
2022-08-09T00:14:17.488Z,21.35
2022-08-09T00:16:57.842Z,21.32
2022-08-09T00:19:28.178Z,21.31
2022-08-09T00:21:57.142Z,21.30
2022-08-09T00:24:27.426Z,21.30
2022-08-09T00:26:57.334Z,21.30
2022-08-09T00:30:10.091Z,21.28
2022-08-09T00:32:26.733Z,21.26
2022-08-09T00:34:56.242Z,21.25
2022-08-09T00:37:24.823Z,21.21
2022-08-09T00:40:12.636Z,21.19
2022-08-09T00:44:19.802Z,21.15
2022-08-09T00:45:30.678Z,21.13
2022-08-09T00:48:06.601Z,21.10
2022-08-09T00:50:37.690Z,21.09
2022-08-09T00:53:10.249Z,21.07
2022-08-09T00:56:04.807Z,21.06
2022-08-09T00:58:30.438Z,21.04
2022-08-09T01:01:00.603Z,21.01
2022-08-09T01:03:46.765Z,20.98
2022-08-09T01:06:54.560Z,20.94
2022-08-09T01:09:36.568Z,20.91
2022-08-09T01:12:14.771Z,20.89
2022-08-09T01:15:01.027Z,20.83
2022-08-09T01:17:40.526Z,20.79
2022-08-09T01:20:15.476Z,20.75
2022-08-09T01:24:01.987Z,20.69
2022-08-09T01:26:38.647Z,20.64
2022-08-09T01:29:11.062Z,20.59
2022-08-09T01:32:33.739Z,20.54
2022-08-09T01:34:39.245Z,20.48
2022-08-09T01:37:12.017Z,20.39
2022-08-09T01:39:43.600Z,20.35
2022-08-09T01:42:13.826Z,20.31
2022-08-09T01:44:43.178Z,20.29
2022-08-09T01:47:13.341Z,20.26
2022-08-09T01:49:50.748Z,20.22
2022-08-09T01:52:21.749Z,20.19
2022-08-09T01:54:56.420Z,20.17
2022-08-09T01:57:40.234Z,20.14
2022-08-09T02:00:35.774Z,20.11
2022-08-09T02:03:06.534Z,20.06
2022-08-09T02:05:43.938Z,20.03
2022-08-09T02:08:40.946Z,19.99
2022-08-09T02:11:17.621Z,19.97
2022-08-09T02:13:55.430Z,19.94
2022-08-09T02:17:00.067Z,19.90
2022-08-09T02:19:38.621Z,19.87
2022-08-09T02:22:31.510Z,19.83
2022-08-09T02:25:08.979Z,19.80
2022-08-09T02:27:43.457Z,19.76
2022-08-09T02:30:37.939Z,19.73
2022-08-09T02:33:14.474Z,19.69
2022-08-09T02:36:03.278Z,19.67
2022-08-09T02:38:47.748Z,19.64
2022-08-09T02:41:27.155Z,19.59
2022-08-09T02:44:06.667Z,19.57
2022-08-09T02:46:45.454Z,19.54
2022-08-09T02:49:27.284Z,19.52
2022-08-09T02:52:10.298Z,19.51
2022-08-09T02:54:54.016Z,19.46
2022-08-09T02:57:25.411Z,19.43
2022-08-09T03:00:20.428Z,19.41
2022-08-09T03:03:00.069Z,19.36
2022-08-09T03:05:34.334Z,19.34
2022-08-09T03:08:06.064Z,19.31
2022-08-09T03:10:37.454Z,19.29
2022-08-09T03:13:08.621Z,19.26
2022-08-09T03:16:06.172Z,19.23
2022-08-09T03:18:31.686Z,19.16
2022-08-09T03:21:03.413Z,19.12
2022-08-09T03:23:32.613Z,19.09
2022-08-09T03:26:04.741Z,19.05
2022-08-09T03:28:36.108Z,19.03
2022-08-09T03:31:10.523Z,18.99
2022-08-09T03:33:54.933Z,18.95
2022-08-09T03:36:27.611Z,18.92
2022-08-09T03:38:57.907Z,18.89
2022-08-09T03:41:30.103Z,18.86
2022-08-09T03:44:15.759Z,18.85
2022-08-09T03:46:44.984Z,18.83
2022-08-09T03:49:19.094Z,18.82
2022-08-09T03:52:00.182Z,18.82
2022-08-09T03:54:34.444Z,18.81
2022-08-09T03:57:18.245Z,18.83
2022-08-09T03:59:55.057Z,18.82
2022-08-09T04:02:27.969Z,18.81
2022-08-09T04:05:06.068Z,18.82
2022-08-09T04:07:53.263Z,18.82
2022-08-09T04:10:29.444Z,18.80
2022-08-09T04:13:04.189Z,18.80
2022-08-09T04:16:18.814Z,18.78
2022-08-09T04:18:22.362Z,18.78
2022-08-09T04:20:55.445Z,18.77
2022-08-09T04:23:25.719Z,18.77
2022-08-09T04:25:55.754Z,18.78
2022-08-09T04:28:33.629Z,18.76
2022-08-09T04:31:09.413Z,18.76
2022-08-09T04:33:51.869Z,18.74
2022-08-09T04:36:26.212Z,18.73
2022-08-09T04:38:56.102Z,18.72
2022-08-09T04:41:32.856Z,18.71
2022-08-09T04:44:07.176Z,18.71
2022-08-09T04:46:59.149Z,18.72
2022-08-09T04:49:53.514Z,18.71
2022-08-09T04:52:26.455Z,18.71
2022-08-09T04:54:56.394Z,18.69
2022-08-09T04:57:25.560Z,18.70
2022-08-09T04:59:56.238Z,18.71
2022-08-09T05:02:27.505Z,18.74
2022-08-09T05:04:56.636Z,18.74
2022-08-09T05:07:27.874Z,18.74
2022-08-09T05:10:02.169Z,18.76
2022-08-09T05:12:33.053Z,18.77
2022-08-09T05:15:11.826Z,18.79
2022-08-09T05:18:39.104Z,18.79
2022-08-09T05:20:47.064Z,18.80
2022-08-09T05:23:53.844Z,18.83
2022-08-09T05:26:05.441Z,18.83
2022-08-09T05:28:33.896Z,18.86
2022-08-09T05:31:09.518Z,18.87
2022-08-09T05:33:42.359Z,18.90
2022-08-09T05:36:11.249Z,18.93
2022-08-09T05:38:46.923Z,18.97
2022-08-09T05:41:15.417Z,19.00
2022-08-09T05:43:45.186Z,19.04
2022-08-09T05:46:17.619Z,19.09
2022-08-09T05:48:48.654Z,19.12
2022-08-09T05:51:42.573Z,19.18
2022-08-09T05:54:17.968Z,19.22
2022-08-09T05:56:54.509Z,19.28
2022-08-09T05:59:23.925Z,19.34
2022-08-09T06:01:58.761Z,19.38
2022-08-09T06:04:34.910Z,19.42
2022-08-09T06:07:04.240Z,19.48
2022-08-09T06:09:40.698Z,19.53
2022-08-09T06:12:22.520Z,19.59
2022-08-09T06:14:54.889Z,19.66
2022-08-09T06:17:23.534Z,19.71
2022-08-09T06:19:51.981Z,19.78
2022-08-09T06:22:28.762Z,19.87
2022-08-09T06:24:58.973Z,19.91
2022-08-09T06:27:43.100Z,19.94
2022-08-09T06:30:17.790Z,19.96
2022-08-09T06:32:59.657Z,20.01
2022-08-09T06:35:57.248Z,20.05
2022-08-09T06:38:37.147Z,20.11
2022-08-09T06:41:18.835Z,20.17
2022-08-09T06:43:48.102Z,20.24
2022-08-09T06:46:39.252Z,20.30
2022-08-09T06:49:05.706Z,20.36
2022-08-09T06:51:39.866Z,20.44
2022-08-09T06:54:12.448Z,20.51
2022-08-09T06:56:46.307Z,20.59
2022-08-09T07:00:52.037Z,20.67
2022-08-09T07:02:05.001Z,20.73
2022-08-09T07:04:34.136Z,20.81
2022-08-09T07:07:05.018Z,20.89
2022-08-09T07:09:56.123Z,21.00
2022-08-09T07:12:37.883Z,21.09
2022-08-09T07:16:38.529Z,21.20
2022-08-09T07:18:02.364Z,21.33
2022-08-09T07:20:31.631Z,21.49
2022-08-09T07:23:00.099Z,21.73
2022-08-09T07:25:29.144Z,22.16
2022-08-09T07:27:59.129Z,23.00
2022-08-09T07:30:33.142Z,24.12
2022-08-09T07:33:01.623Z,25.19
2022-08-09T07:35:53.430Z,26.16
2022-08-09T07:38:23.435Z,26.98
2022-08-09T07:41:08.368Z,27.59
2022-08-09T07:43:49.927Z,28.11
2022-08-09T07:46:27.693Z,28.76
2022-08-09T07:48:59.401Z,28.90
2022-08-09T07:52:04.895Z,29.18
2022-08-09T07:54:27.522Z,29.40
2022-08-09T07:56:56.793Z,29.60
2022-08-09T07:59:34.315Z,29.75
2022-08-09T08:02:19.714Z,29.89
2022-08-09T08:04:49.447Z,29.87
2022-08-09T08:08:43.622Z,29.74
2022-08-09T08:10:11.699Z,29.71
2022-08-09T08:12:45.681Z,29.70
2022-08-09T08:15:23.021Z,29.77
2022-08-09T08:17:58.621Z,29.92
2022-08-09T08:20:32.768Z,30.11
2022-08-09T08:23:15.914Z,30.27
2022-08-09T08:25:46.446Z,30.47
2022-08-09T08:28:26.159Z,30.65
2022-08-09T08:31:14.368Z,30.87
2022-08-09T08:33:53.278Z,31.08
2022-08-09T08:36:28.811Z,31.25
2022-08-09T08:38:59.568Z,31.50
2022-08-09T08:41:50.205Z,31.58
2022-08-09T08:44:27.074Z,31.76
2022-08-09T08:47:04.347Z,31.94
2022-08-09T08:49:47.970Z,32.18
2022-08-09T08:55:09.354Z,32.62
2022-08-09T08:57:38.219Z,32.77
2022-08-09T09:00:17.312Z,32.89
2022-08-09T09:02:53.651Z,32.92
2022-08-09T09:05:33.211Z,33.06
2022-08-09T09:08:30.562Z,33.36
2022-08-09T09:11:04.068Z,33.72
2022-08-09T09:13:50.188Z,33.99
2022-08-09T09:16:30.536Z,34.24
2022-08-09T09:19:29.084Z,34.50
2022-08-09T09:22:07.703Z,34.76
2022-08-09T09:24:40.435Z,34.93
2022-08-09T09:28:03.126Z,35.02
2022-08-09T09:30:31.597Z,35.04
2022-08-09T09:33:13.615Z,35.29
2022-08-09T09:36:02.577Z,35.44
2022-08-09T09:38:47.921Z,35.62
2022-08-09T09:41:48.796Z,35.70
2022-08-09T09:44:27.776Z,35.64
2022-08-09T09:47:08.910Z,35.71
2022-08-09T09:50:07.219Z,35.95
2022-08-09T09:52:36.927Z,36.16
2022-08-09T09:55:24.063Z,36.38
2022-08-09T09:58:19.037Z,36.49
2022-08-09T10:00:55.505Z,36.48
2022-08-09T10:03:58.044Z,36.54
2022-08-09T10:06:32.343Z,36.69
2022-08-09T10:09:21.509Z,36.74
2022-08-09T10:12:11.955Z,36.69
2022-08-09T10:14:48.228Z,36.83
2022-08-09T10:17:55.033Z,37.01
2022-08-09T10:20:32.313Z,37.26
2022-08-09T10:23:17.205Z,37.43
2022-08-09T10:26:07.886Z,37.45
2022-08-09T10:28:40.694Z,37.52
2022-08-09T10:34:09.951Z,37.42
2022-08-09T10:36:50.195Z,37.35
2022-08-09T10:39:19.992Z,37.34
2022-08-09T10:41:49.901Z,37.33
2022-08-09T10:44:22.222Z,37.29
2022-08-09T10:48:16.431Z,37.33
2022-08-09T10:50:31.246Z,37.48
2022-08-09T10:53:10.357Z,37.74
2022-08-09T10:55:57.704Z,37.71
2022-08-09T10:58:37.165Z,37.71
2022-08-09T11:03:11.445Z,37.85
2022-08-09T11:04:30.118Z,37.87
2022-08-09T11:07:57.394Z,37.81
2022-08-09T11:11:08.558Z,37.97
2022-08-09T11:13:54.305Z,38.18
2022-08-09T11:16:38.616Z,38.31
2022-08-09T11:19:10.869Z,38.51
2022-08-09T11:22:16.732Z,38.62
2022-08-09T11:25:08.809Z,38.51
2022-08-09T11:28:04.461Z,38.60
2022-08-09T11:30:38.635Z,38.55
2022-08-09T11:33:39.821Z,38.66
2022-08-09T11:36:09.277Z,38.94
2022-08-09T11:38:43.314Z,39.02
2022-08-09T11:41:38.262Z,38.90
2022-08-09T11:44:09.882Z,38.82
2022-08-09T11:47:00.950Z,38.62
2022-08-09T11:50:55.069Z,38.67
2022-08-09T11:53:59.654Z,38.79
2022-08-09T11:56:41.529Z,38.91
2022-08-09T11:59:14.237Z,39.21
2022-08-09T12:02:17.044Z,39.48
2022-08-09T12:04:37.636Z,39.67
2022-08-09T12:07:08.397Z,39.88
2022-08-09T12:09:37.907Z,40.03
2022-08-09T12:12:13.059Z,40.06
2022-08-09T12:15:07.793Z,40.21
2022-08-09T12:17:44.329Z,40.08
2022-08-09T12:20:22.143Z,39.70
2022-08-09T12:22:55.833Z,39.54
2022-08-09T12:25:31.991Z,39.04
2022-08-09T12:29:13.476Z,38.48
2022-08-09T12:31:57.990Z,38.07
2022-08-09T12:34:06.040Z,38.17
2022-08-09T12:36:49.782Z,38.50
2022-08-09T12:39:19.401Z,39.08
2022-08-09T12:41:48.209Z,39.47
2022-08-09T12:44:18.753Z,39.79
2022-08-09T12:46:53.292Z,40.04
2022-08-09T12:49:23.554Z,40.24
2022-08-09T12:52:01.058Z,40.21
2022-08-09T12:54:47.641Z,40.27
2022-08-09T12:57:43.127Z,40.35
2022-08-09T13:00:19.101Z,40.49
2022-08-09T13:02:57.242Z,40.66
2022-08-09T13:05:50.811Z,40.75
2022-08-09T13:08:40.023Z,40.97
2022-08-09T13:11:22.927Z,41.21
2022-08-09T13:14:42.958Z,41.39
2022-08-09T13:16:49.804Z,41.66
2022-08-09T13:20:08.356Z,41.67
2022-08-09T13:23:02.095Z,41.72
2022-08-09T13:25:12.050Z,42.00
2022-08-09T13:27:55.468Z,42.30
2022-08-09T13:30:51.203Z,42.54
2022-08-09T13:33:24.230Z,42.56
2022-08-09T13:36:38.548Z,42.61
2022-08-09T13:38:54.988Z,42.58
2022-08-09T13:41:57.132Z,42.67
2022-08-09T13:44:18.957Z,42.66
2022-08-09T13:47:28.963Z,42.74
2022-08-09T13:49:39.708Z,42.91
2022-08-09T13:52:25.748Z,42.95
2022-08-09T13:54:59.750Z,42.69
2022-08-09T13:57:36.865Z,42.84
2022-08-09T14:00:14.011Z,42.89
2022-08-09T14:03:02.958Z,43.00
2022-08-09T14:05:59.122Z,43.13
2022-08-09T14:08:26.960Z,43.15
2022-08-09T14:10:57.214Z,42.84
2022-08-09T14:14:15.785Z,42.68
2022-08-09T14:16:19.109Z,42.48
2022-08-09T14:18:51.818Z,42.66
2022-08-09T14:21:22.953Z,42.88
2022-08-09T14:23:56.949Z,43.06
2022-08-09T14:26:31.492Z,43.29
2022-08-09T14:29:08.254Z,43.43
2022-08-09T14:31:55.087Z,43.32
2022-08-09T14:34:31.644Z,43.27
2022-08-09T14:37:06.618Z,43.44
2022-08-09T14:39:39.869Z,43.51
2022-08-09T14:42:40.720Z,43.47
2022-08-09T14:46:58.524Z,43.38
2022-08-09T14:47:59.641Z,43.48
2022-08-09T14:50:34.236Z,43.65
2022-08-09T14:53:11.414Z,43.49
2022-08-09T14:55:42.331Z,43.37
2022-08-09T14:58:16.942Z,43.05
2022-08-09T15:00:48.516Z,42.84
2022-08-09T15:03:20.916Z,42.83
2022-08-09T15:05:54.830Z,42.86
2022-08-09T15:08:30.349Z,42.67
2022-08-09T15:11:01.095Z,42.62
2022-08-09T15:13:55.882Z,42.71
2022-08-09T15:16:20.740Z,42.72
2022-08-09T15:18:49.844Z,42.40
2022-08-09T15:21:58.157Z,42.29
2022-08-09T15:24:13.071Z,42.36
2022-08-09T15:26:45.337Z,42.10
2022-08-09T15:30:57.363Z,41.87
2022-08-09T15:32:28.464Z,41.96
2022-08-09T15:34:55.814Z,41.99
2022-08-09T15:38:10.369Z,42.14
2022-08-09T15:40:32.297Z,42.11
2022-08-09T15:43:02.456Z,42.00
2022-08-09T15:45:31.155Z,41.88
2022-08-09T15:48:28.284Z,41.79
2022-08-09T15:50:58.753Z,41.76
2022-08-09T15:54:02.752Z,41.76
2022-08-09T15:56:29.503Z,41.74
2022-08-09T15:58:59.973Z,41.84
2022-08-09T16:01:31.601Z,41.94
2022-08-09T16:04:05.911Z,41.85
2022-08-09T16:06:44.561Z,41.89
2022-08-09T16:09:18.935Z,41.88
2022-08-09T16:12:01.793Z,42.03
2022-08-09T16:14:31.452Z,42.05
2022-08-09T16:17:01.098Z,41.89
2022-08-09T16:19:36.578Z,41.73
2022-08-09T16:22:05.773Z,41.52
2022-08-09T16:24:43.850Z,41.31
2022-08-09T16:27:25.394Z,41.24
2022-08-09T16:30:01.118Z,41.18
2022-08-09T16:32:49.313Z,41.15
2022-08-09T16:35:56.666Z,40.96
2022-08-09T16:38:08.671Z,40.92
2022-08-09T16:40:40.785Z,40.93
2022-08-09T16:43:10.108Z,40.90
2022-08-09T16:45:44.377Z,40.75
2022-08-09T16:48:42.503Z,40.65
2022-08-09T16:51:08.189Z,40.55
2022-08-09T16:53:47.251Z,40.08
2022-08-09T16:56:26.177Z,39.11
2022-08-09T16:58:59.392Z,38.45
2022-08-09T17:01:33.664Z,38.34
2022-08-09T17:04:03.184Z,38.02
2022-08-09T17:07:10.058Z,37.85
2022-08-09T17:09:44.930Z,38.09
2022-08-09T17:12:12.680Z,38.22
2022-08-09T17:14:46.308Z,38.29
2022-08-09T17:17:26.267Z,38.27
2022-08-09T17:20:29.196Z,38.19
2022-08-09T17:22:50.313Z,37.98
2022-08-09T17:25:22.324Z,37.53
2022-08-09T17:27:54.699Z,37.15
2022-08-09T17:30:26.540Z,36.76
2022-08-09T17:33:01.445Z,36.18
2022-08-09T17:35:41.050Z,35.49
2022-08-09T17:38:32.015Z,34.87
2022-08-09T17:41:02.986Z,34.33
2022-08-09T17:43:35.731Z,34.07
2022-08-09T17:46:09.592Z,33.92
2022-08-09T17:48:46.581Z,33.61
2022-08-09T17:51:22.602Z,33.22
2022-08-09T17:53:55.963Z,32.87
2022-08-09T17:56:29.222Z,32.64
2022-08-09T17:59:11.905Z,32.48
2022-08-09T18:02:08.080Z,32.23
2022-08-09T18:04:34.289Z,31.95
2022-08-09T18:07:07.777Z,31.75
2022-08-09T18:09:41.855Z,31.57
2022-08-09T18:12:17.147Z,31.41
2022-08-09T18:14:55.171Z,31.27
2022-08-09T18:18:02.929Z,31.12
2022-08-09T18:20:55.427Z,30.94
2022-08-09T18:23:05.602Z,30.80
2022-08-09T18:25:51.063Z,30.66
2022-08-09T18:30:39.252Z,30.50
2022-08-09T18:31:12.586Z,30.33
2022-08-09T18:33:40.990Z,30.20
2022-08-09T18:36:14.141Z,30.07
2022-08-09T18:39:00.633Z,29.93
2022-08-09T18:41:34.260Z,29.80
2022-08-09T18:44:12.385Z,29.69
2022-08-09T18:46:46.670Z,29.55
2022-08-09T18:49:31.990Z,29.44
2022-08-09T18:52:00.917Z,29.34
2022-08-09T18:54:29.683Z,29.23
2022-08-09T18:57:06.011Z,29.12
2022-08-09T18:59:51.213Z,29.01
2022-08-09T19:02:30.780Z,28.89
2022-08-09T19:05:03.970Z,28.80
2022-08-09T19:08:03.771Z,28.67
2022-08-09T19:10:37.847Z,28.57
2022-08-09T19:13:20.498Z,28.47
2022-08-09T19:15:51.351Z,28.38
2022-08-09T19:18:33.818Z,28.30
2022-08-09T19:21:08.855Z,28.21
2022-08-09T19:24:31.822Z,28.13
2022-08-09T19:26:31.415Z,28.06
2022-08-09T19:29:03.419Z,27.98
2022-08-09T19:31:44.313Z,27.91
2022-08-09T19:34:21.650Z,27.83
2022-08-09T19:36:52.459Z,27.73
2022-08-09T19:39:42.947Z,27.65
2022-08-09T19:42:15.244Z,27.55
2022-08-09T19:44:51.119Z,27.45
2022-08-09T19:47:23.494Z,27.38
2022-08-09T19:50:08.043Z,27.29
2022-08-09T19:52:51.827Z,27.19
2022-08-09T19:55:30.454Z,27.11
2022-08-09T19:58:15.956Z,26.99
2022-08-09T20:00:47.730Z,26.92
2022-08-09T20:04:12.415Z,26.85
2022-08-09T20:06:06.250Z,26.79
2022-08-09T20:08:51.682Z,26.72
2022-08-09T20:11:25.824Z,26.66
2022-08-09T20:13:55.540Z,26.60
2022-08-09T20:16:36.348Z,26.57
2022-08-09T20:19:48.965Z,26.50
2022-08-09T20:22:00.003Z,26.45
2022-08-09T20:24:33.946Z,26.37
2022-08-09T20:27:07.947Z,26.32
2022-08-09T20:29:38.767Z,26.28
2022-08-09T20:32:29.333Z,26.23
2022-08-09T20:34:59.143Z,26.18
2022-08-09T20:38:18.540Z,26.14
2022-08-09T20:40:26.423Z,26.10
2022-08-09T20:42:59.779Z,26.06
2022-08-09T20:45:59.071Z,26.01
2022-08-09T20:48:21.068Z,25.94
2022-08-09T20:50:55.781Z,25.87
2022-08-09T20:53:36.846Z,25.79
2022-08-09T20:56:20.821Z,25.71
2022-08-09T20:58:54.502Z,25.64
2022-08-09T21:01:35.246Z,25.56
2022-08-09T21:05:51.714Z,25.48
2022-08-09T21:07:12.319Z,25.40
2022-08-09T21:09:45.683Z,25.34
2022-08-09T21:15:14.972Z,25.23
2022-08-09T21:18:11.550Z,25.18
2022-08-09T21:20:35.377Z,25.12
2022-08-09T21:23:04.993Z,25.08
2022-08-09T21:25:59.396Z,25.02
2022-08-09T21:28:34.699Z,24.94
2022-08-09T21:31:16.192Z,24.86
2022-08-09T21:33:52.448Z,24.80
2022-08-09T21:36:27.842Z,24.69
2022-08-09T21:38:59.184Z,24.63
2022-08-09T21:42:04.738Z,24.55
2022-08-09T21:44:33.767Z,24.48
2022-08-09T21:47:05.456Z,24.44
2022-08-09T21:49:39.500Z,24.37
2022-08-09T21:52:16.600Z,24.32
2022-08-09T21:54:50.663Z,24.28
2022-08-09T21:57:36.800Z,24.24
2022-08-09T22:00:12.593Z,24.17
2022-08-09T22:02:44.034Z,24.09
2022-08-09T22:05:23.216Z,24.05
2022-08-09T22:07:54.153Z,23.99
2022-08-09T22:10:24.157Z,23.94
2022-08-09T22:12:53.250Z,23.89
2022-08-09T22:15:23.405Z,23.86
2022-08-09T22:18:04.259Z,23.79
2022-08-09T22:20:37.100Z,23.77
2022-08-09T22:23:10.588Z,23.71
2022-08-09T22:26:05.421Z,23.66
2022-08-09T22:28:33.304Z,23.61
2022-08-09T22:31:02.687Z,23.57
2022-08-09T22:33:48.545Z,23.54
2022-08-09T22:36:19.491Z,23.51
2022-08-09T22:38:49.610Z,23.48
2022-08-09T22:41:19.299Z,23.45
2022-08-09T22:44:02.605Z,23.42
2022-08-09T22:48:11.988Z,23.38
2022-08-09T22:49:23.464Z,23.35
2022-08-09T22:51:56.662Z,23.33
2022-08-09T22:54:28.084Z,23.32
2022-08-09T22:56:58.623Z,23.28
2022-08-09T22:59:55.353Z,23.24
2022-08-09T23:02:20.322Z,23.23
2022-08-09T23:04:54.279Z,23.22
2022-08-09T23:08:21.797Z,23.19
2022-08-09T23:10:34.819Z,23.17
2022-08-09T23:13:03.309Z,23.15
2022-08-09T23:15:32.016Z,23.14
2022-08-09T23:18:00.410Z,23.11
2022-08-09T23:20:28.979Z,23.10
2022-08-09T23:22:57.584Z,23.08
2022-08-09T23:25:26.249Z,23.05
2022-08-09T23:27:57.240Z,23.02
2022-08-09T23:30:51.825Z,22.99
2022-08-09T23:33:21.239Z,22.98
2022-08-09T23:36:06.431Z,22.98
2022-08-09T23:38:49.136Z,22.96
2022-08-09T23:41:28.835Z,22.95
2022-08-09T23:44:00.704Z,22.90
2022-08-09T23:46:30.544Z,22.89
2022-08-09T23:48:59.192Z,22.87
2022-08-09T23:51:28.598Z,22.84
2022-08-09T23:54:02.401Z,22.82
2022-08-09T23:56:52.089Z,22.80
2022-08-09T23:59:23.660Z,22.77
